Time;durP1;ratioP1;P1;durP2;ratioP2;P2;SDS_P1;SDS_P2;PMS_P1;PMS_P2;Temp;Humidity;BMP_temperature;BMP_pressure;BME280_temperature;BME280_humidity;BME280_pressure;Samples;Min_cycle;Max_cycle;Signal;HPM_P1;HPM_P2
2021/06/11 00:02:14;;;;;;;26.00;16.00;;;14.40;99.90;;;;;;4781030;29;20057;-93
2021/06/11 00:04:40;;;;;;;23.92;16.02;;;14.40;99.90;;;;;;4801177;29;20050;-93
2021/06/11 00:07:07;;;;;;;23.40;16.08;;;14.40;99.90;;;;;;4787972;29;20039;-93
2021/06/11 00:09:33;;;;;;;25.42;16.63;;;14.40;99.90;;;;;;4797045;29;20099;-93
2021/06/11 00:11:59;;;;;;;19.75;14.23;;;14.30;99.90;;;;;;4803040;29;20043;-94
2021/06/11 00:14:24;;;;;;;16.58;11.60;;;14.30;99.90;;;;;;4787728;29;20104;-92
2021/06/11 00:16:50;;;;;;;20.90;14.15;;;14.30;99.90;;;;;;4777618;29;20062;-92
2021/06/11 00:19:16;;;;;;;18.05;13.10;;;14.30;99.90;;;;;;4818291;29;20493;-92
2021/06/11 00:21:42;;;;;;;23.92;14.93;;;14.20;99.90;;;;;;4818165;29;20038;-94
2021/06/11 00:24:08;;;;;;;19.75;14.13;;;14.20;99.90;;;;;;4802011;29;20066;-93
2021/06/11 00:26:33;;;;;;;19.77;13.07;;;14.10;99.90;;;;;;4817627;29;20130;-92
2021/06/11 00:28:59;;;;;;;17.38;12.52;;;14.00;99.90;;;;;;4802057;29;20527;-92
2021/06/11 00:31:25;;;;;;;27.58;15.90;;;14.00;99.90;;;;;;4801820;29;20047;-92
2021/06/11 00:33:51;;;;;;;19.80;14.45;;;13.90;99.90;;;;;;4787562;29;20072;-93
2021/06/11 00:36:17;;;;;;;19.75;13.43;;;13.90;99.90;;;;;;4818059;29;20051;-92
2021/06/11 00:38:43;;;;;;;24.15;14.65;;;13.80;99.90;;;;;;4830588;29;20047;-92
2021/06/11 00:41:08;;;;;;;32.65;16.60;;;13.80;99.90;;;;;;4801887;29;20128;-92
2021/06/11 00:43:34;;;;;;;23.23;15.18;;;13.80;99.90;;;;;;4802960;29;20420;-93
2021/06/11 00:46:00;;;;;;;34.22;18.98;;;13.70;99.90;;;;;;4789675;29;20054;-91
2021/06/11 00:48:26;;;;;;;27.58;16.35;;;13.70;99.90;;;;;;4802816;29;20046;-90
2021/06/11 00:50:52;;;;;;;38.42;19.55;;;13.70;99.90;;;;;;4818385;29;20055;-91
2021/06/11 00:53:18;;;;;;;29.13;17.00;;;13.70;99.90;;;;;;4819058;29;20129;-91
2021/06/11 00:55:45;;;;;;;33.78;20.05;;;13.70;99.90;;;;;;4818372;29;20420;-91
2021/06/11 00:58:12;;;;;;;39.65;22.65;;;13.60;99.90;;;;;;4789576;29;20054;-93
2021/06/11 01:00:39;;;;;;;37.90;19.70;;;13.60;99.90;;;;;;4805319;29;20047;-91
2021/06/11 01:03:06;;;;;;;35.60;20.33;;;13.60;99.90;;;;;;4805893;29;20054;-91
2021/06/11 01:05:32;;;;;;;30.80;18.05;;;13.60;99.90;;;;;;4819919;29;20074;-92
2021/06/11 01:08:01;;;;;;;37.45;19.95;;;13.60;99.90;;;;;;4788857;29;20076;-91
2021/06/11 01:10:27;;;;;;;29.52;18.17;;;13.60;99.90;;;;;;4804987;29;20048;-92
2021/06/11 01:12:55;;;;;;;40.72;21.63;;;13.60;99.90;;;;;;4771771;29;20134;-91
2021/06/11 01:15:21;;;;;;;47.45;24.10;;;13.60;99.90;;;;;;4798162;29;20043;-93
2021/06/11 01:17:49;;;;;;;33.50;18.63;;;13.70;99.90;;;;;;4805284;29;20054;-94
2021/06/11 01:20:16;;;;;;;39.72;21.92;;;13.70;99.90;;;;;;4780986;30;20478;-93
2021/06/11 01:22:48;;;;;;;31.63;18.05;;;13.60;99.90;;;;;;4802545;29;20050;-92
2021/06/11 01:25:39;;;;;;;56.22;28.08;;;13.70;99.90;;;;;;4805070;29;20047;-93
2021/06/11 01:28:07;;;;;;;34.72;20.08;;;13.70;99.90;;;;;;4803902;29;20116;-94
2021/06/11 01:30:34;;;;;;;30.55;20.30;;;13.70;99.90;;;;;;4827122;29;20395;-94
2021/06/11 01:33:04;;;;;;;40.30;22.05;;;13.70;99.90;;;;;;4787897;29;20046;-94
2021/06/11 01:35:39;;;;;;;44.92;23.52;;;13.70;99.90;;;;;;4805857;29;20047;-91
2021/06/11 01:38:07;;;;;;;61.38;27.67;;;13.80;99.90;;;;;;4805590;29;20428;-94
2021/06/11 01:40:34;;;;;;;51.90;27.20;;;13.70;99.90;;;;;;4807051;29;20077;-93
2021/06/11 01:43:02;;;;;;;58.15;30.65;;;13.70;99.90;;;;;;4806086;29;20058;-93
2021/06/11 01:45:29;;;;;;;41.90;22.25;;;13.70;99.90;;;;;;4805571;29;20511;-93
2021/06/11 01:47:58;;;;;;;51.25;25.45;;;13.70;99.90;;;;;;4815361;29;20536;-94
2021/06/11 01:50:35;;;;;;;38.42;22.45;;;13.60;99.90;;;;;;4793730;29;20058;-92
2021/06/11 01:53:03;;;;;;;31.55;17.95;;;13.60;99.90;;;;;;4806330;29;20070;-94
2021/06/11 01:55:31;;;;;;;33.40;19.48;;;13.50;99.90;;;;;;4805406;29;20532;-93
2021/06/11 01:58:00;;;;;;;37.38;21.13;;;13.50;99.90;;;;;;4790967;29;20054;-94
2021/06/11 02:00:26;;;;;;;54.13;26.63;;;13.40;99.90;;;;;;4805643;29;20047;-93
2021/06/11 02:02:53;;;;;;;37.15;20.88;;;13.40;99.90;;;;;;4810725;29;20474;-94
2021/06/11 02:05:19;;;;;;;38.58;20.90;;;13.50;99.90;;;;;;4803382;29;20047;-93
2021/06/11 02:07:48;;;;;;;27.08;18.08;;;13.50;99.90;;;;;;4805451;29;20111;-93
2021/06/11 02:10:19;;;;;;;28.80;18.67;;;13.50;99.90;;;;;;4804688;29;20400;-93
2021/06/11 02:12:45;;;;;;;58.72;28.30;;;13.50;99.90;;;;;;4805269;29;20134;-94
2021/06/11 02:15:13;;;;;;;48.67;24.67;;;13.60;99.90;;;;;;4804933;29;20051;-94
2021/06/11 02:17:44;;;;;;;44.03;23.35;;;13.60;99.90;;;;;;4804822;29;20047;-92
2021/06/11 02:20:17;;;;;;;72.93;31.85;;;13.70;99.90;;;;;;4805253;29;20070;-93
2021/06/11 02:22:44;;;;;;;72.78;32.85;;;13.70;99.90;;;;;;4805447;29;20135;-93
2021/06/11 02:25:15;;;;;;;67.25;31.27;;;13.70;99.90;;;;;;4817549;29;20063;-93
2021/06/11 02:27:42;;;;;;;57.90;28.63;;;13.60;99.90;;;;;;4804622;29;20046;-93
2021/06/11 02:30:13;;;;;;;50.00;25.10;;;13.60;99.90;;;;;;4804358;29;20062;-93
2021/06/11 02:32:40;;;;;;;42.83;24.55;;;13.60;99.90;;;;;;4805484;29;20499;-94
2021/06/11 02:35:08;;;;;;;63.20;31.13;;;13.70;99.90;;;;;;4804325;29;20051;-93
2021/06/11 02:37:37;;;;;;;68.50;29.02;;;13.60;99.90;;;;;;4789975;29;20115;-93
2021/06/11 02:40:05;;;;;;;63.95;30.05;;;13.60;99.90;;;;;;4789125;29;20103;-94
2021/06/11 02:42:31;;;;;;;85.82;36.00;;;13.60;99.90;;;;;;4789812;29;20455;-93
2021/06/11 02:45:02;;;;;;;40.38;22.52;;;13.60;99.90;;;;;;4801174;29;20043;-93
2021/06/11 02:47:36;;;;;;;67.82;31.92;;;13.60;99.90;;;;;;4797050;29;20477;-93
2021/06/11 02:50:26;;;;;;;60.53;29.52;;;13.60;99.90;;;;;;4818633;29;20050;-93
2021/06/11 02:52:54;;;;;;;;;;;13.60;99.90;;;;;;4805487;29;20111;-94
2021/06/11 02:55:22;;;;;;;63.60;29.25;;;13.60;99.90;;;;;;4803521;29;19925;-93
2021/06/11 02:57:57;;;;;;;61.85;29.20;;;13.60;99.90;;;;;;4805674;29;20054;-95
2021/06/11 03:00:27;;;;;;;74.32;31.05;;;13.50;99.90;;;;;;4801342;29;20598;-93
2021/06/11 03:03:09;;;;;;;645.88;39.28;;;13.50;99.90;;;;;;4802506;29;20137;-94
2021/06/11 03:05:36;;;;;;;430.75;33.67;;;13.60;99.90;;;;;;4804693;29;20454;-94
2021/06/11 03:08:10;;;;;;;44.33;22.60;;;13.40;99.90;;;;;;4818961;29;20047;-94
2021/06/11 03:10:38;;;;;;;48.45;21.02;;;13.50;99.90;;;;;;4805634;29;20563;-93
2021/06/11 03:13:04;;;;;;;50.08;25.40;;;13.50;99.90;;;;;;4804073;29;20054;-94
2021/06/11 03:15:34;;;;;;;50.03;25.95;;;13.50;99.90;;;;;;4804538;29;20050;-94
2021/06/11 03:18:04;;;;;;;34.88;22.23;;;13.60;99.90;;;;;;4807014;29;20138;-95
2021/06/11 03:20:34;;;;;;;48.20;26.02;;;13.60;99.90;;;;;;4820053;29;20050;-94
2021/06/11 03:23:29;;;;;;;51.80;26.02;;;13.70;99.90;;;;;;4791543;29;20070;-93
2021/06/11 03:26:02;;;;;;;39.22;23.23;;;13.70;99.90;;;;;;4819782;29;20573;-94
2021/06/11 03:28:42;;;;;;;38.05;20.60;;;13.70;99.90;;;;;;4805899;29;20047;-94
2021/06/11 03:31:10;;;;;;;;;;;13.80;99.90;;;;;;4804219;29;20058;-92
2021/06/11 03:33:40;;;;;;;37.63;21.83;;;13.90;99.90;;;;;;4804062;29;20465;-93
2021/06/11 03:36:34;;;;;;;34.95;20.35;;;13.90;99.90;;;;;;4791126;29;20051;-93
2021/06/11 03:39:06;;;;;;;37.25;22.73;;;13.90;99.90;;;;;;4803759;29;20126;-94
2021/06/11 03:41:35;;;;;;;38.47;22.15;;;13.90;99.90;;;;;;4789536;29;20054;-94
2021/06/11 03:44:04;;;;;;;33.13;20.40;;;13.90;99.90;;;;;;4805079;29;20104;-93
2021/06/11 03:46:32;;;;;;;26.92;17.83;;;13.90;99.90;;;;;;4803155;29;20071;-93
2021/06/11 03:49:00;;;;;;;37.70;22.25;;;13.90;99.90;;;;;;4801035;29;20076;-93
2021/06/11 03:51:28;;;;;;;27.80;17.90;;;14.00;99.90;;;;;;4817326;29;20051;-93
2021/06/11 03:53:56;;;;;;;38.33;21.67;;;14.00;99.90;;;;;;4802957;29;20470;-93
2021/06/11 03:56:25;;;;;;;28.13;17.55;;;14.00;99.90;;;;;;4801078;29;20047;-93
2021/06/11 03:58:52;;;;;;;38.35;19.85;;;14.00;99.90;;;;;;4804260;29;20051;-94
2021/06/11 04:01:24;;;;;;;37.15;21.58;;;14.00;99.90;;;;;;4799271;29;20042;-93
2021/06/11 04:03:51;;;;;;;28.58;18.20;;;14.00;99.90;;;;;;4804027;29;20051;-92
2021/06/11 04:06:36;;;;;;;29.08;18.67;;;14.10;99.90;;;;;;4803794;29;20119;-92
2021/06/11 04:09:14;;;;;;;36.97;21.75;;;14.10;99.90;;;;;;4803810;29;20046;-94
2021/06/11 04:11:45;;;;;;;41.47;23.52;;;14.10;99.90;;;;;;4803833;29;20142;-94
2021/06/11 04:14:42;;;;;;;41.03;23.35;;;14.20;99.90;;;;;;4803046;29;20057;-93
2021/06/11 04:17:11;;;;;;;48.97;24.30;;;14.20;99.90;;;;;;4791002;29;20051;-93
2021/06/11 04:19:48;;;;;;;37.40;21.00;;;14.20;99.90;;;;;;4805745;29;20066;-92
2021/06/11 04:22:15;;;;;;;37.17;21.92;;;14.20;99.90;;;;;;4806514;29;20075;-91
2021/06/11 04:24:45;;;;;;;39.08;20.98;;;14.30;99.90;;;;;;4805258;29;20047;-92
2021/06/11 04:27:13;;;;;;;25.75;16.80;;;14.30;99.90;;;;;;4805021;29;20058;-92
2021/06/11 04:29:41;;;;;;;45.88;24.13;;;14.30;99.90;;;;;;4790971;29;20042;-92
2021/06/11 04:32:08;;;;;;;45.53;23.33;;;14.40;99.90;;;;;;4819998;29;20054;-92
2021/06/11 04:34:34;;;;;;;42.28;22.88;;;14.40;99.90;;;;;;4806041;29;20484;-93
2021/06/11 04:36:59;;;;;;;33.75;19.83;;;14.40;99.90;;;;;;4820900;29;20050;-93
2021/06/11 04:39:25;;;;;;;32.80;19.95;;;14.40;99.90;;;;;;4805203;29;20885;-92
2021/06/11 04:41:51;;;;;;;34.67;19.73;;;14.50;99.90;;;;;;4785557;29;20059;-92
2021/06/11 04:44:18;;;;;;;30.13;19.02;;;14.60;99.90;;;;;;4813837;29;20047;-90
2021/06/11 04:46:46;;;;;;;40.80;23.17;;;14.70;99.90;;;;;;4806236;29;20046;-92
2021/06/11 04:49:12;;;;;;;44.70;23.83;;;14.80;99.90;;;;;;4820003;29;20043;-92
2021/06/11 04:51:38;;;;;;;51.13;26.45;;;14.90;99.90;;;;;;4805832;29;20408;-92
2021/06/11 04:54:04;;;;;;;55.13;29.35;;;14.90;99.90;;;;;;4821349;29;20046;-93
2021/06/11 04:56:30;;;;;;;57.38;29.92;;;15.10;99.90;;;;;;4776737;29;20047;-94
2021/06/11 04:58:58;;;;;;;50.47;28.20;;;15.20;99.90;;;;;;4791588;29;20058;-93
2021/06/11 05:01:24;;;;;;;46.95;27.00;;;15.20;99.90;;;;;;4820990;29;20061;-94
2021/06/11 05:03:50;;;;;;;45.88;25.73;;;15.30;99.90;;;;;;4806683;29;20047;-92
2021/06/11 05:06:17;;;;;;;47.47;26.60;;;15.40;99.90;;;;;;4820238;29;20078;-93
2021/06/11 05:08:44;;;;;;;50.88;27.60;;;15.50;99.90;;;;;;4805406;29;20046;-91
2021/06/11 05:11:11;;;;;;;50.97;27.40;;;15.50;99.90;;;;;;4805120;29;20489;-91
2021/06/11 05:13:38;;;;;;;49.78;27.17;;;15.60;99.90;;;;;;4804977;29;20065;-92
2021/06/11 05:16:07;;;;;;;50.20;28.00;;;15.70;99.90;;;;;;4806052;29;20484;-90
2021/06/11 05:18:33;;;;;;;46.40;26.75;;;15.80;99.90;;;;;;4805164;29;20379;-92
2021/06/11 05:21:00;;;;;;;47.28;26.80;;;15.80;99.90;;;;;;4806277;29;20560;-91
2021/06/11 05:23:29;;;;;;;55.47;28.75;;;15.90;99.90;;;;;;4804559;29;20632;-91
2021/06/11 05:25:55;;;;;;;53.00;27.73;;;16.00;99.90;;;;;;4819104;29;20047;-92
2021/06/11 05:28:22;;;;;;;53.33;27.80;;;16.10;99.90;;;;;;4789852;29;20047;-92
2021/06/11 05:30:54;;;;;;;55.47;28.80;;;16.20;99.90;;;;;;4803817;29;20095;-92
2021/06/11 05:33:22;;;;;;;51.15;30.00;;;16.30;99.90;;;;;;4805085;29;20043;-90
2021/06/11 05:35:51;;;;;;;49.13;28.10;;;16.30;99.90;;;;;;4804789;29;20138;-92
2021/06/11 05:38:18;;;;;;;55.88;28.20;;;16.40;99.90;;;;;;4793638;29;20046;-95
2021/06/11 05:40:53;;;;;;;53.20;28.67;;;16.50;99.90;;;;;;4821258;29;20420;-93
2021/06/11 05:43:22;;;;;;;46.85;25.83;;;16.60;99.90;;;;;;4790949;29;20051;-94
2021/06/11 05:46:08;;;;;;;47.13;26.83;;;16.60;99.90;;;;;;4781220;29;20061;-94
2021/06/11 05:48:37;;;;;;;47.60;27.55;;;16.70;99.90;;;;;;4805473;29;20046;-94
2021/06/11 05:51:04;;;;;;;47.17;27.02;;;16.80;99.90;;;;;;4805322;29;20555;-94
2021/06/11 05:53:40;;;;;;;46.55;26.88;;;16.80;99.90;;;;;;4805953;29;20111;-93
2021/06/11 05:56:08;;;;;;;40.95;25.08;;;16.90;99.90;;;;;;4790959;29;20051;-92
2021/06/11 05:58:35;;;;;;;46.88;26.30;;;17.00;99.90;;;;;;4790323;29;20141;-93
2021/06/11 06:01:16;;;;;;;40.97;25.90;;;17.10;99.90;;;;;;4803806;29;20047;-95
2021/06/11 06:03:42;;;;;;;39.95;24.15;;;17.20;99.90;;;;;;4789314;29;20455;-94
2021/06/11 06:06:12;;;;;;;40.47;24.50;;;17.20;99.90;;;;;;4824959;29;20544;-94
2021/06/11 06:08:40;;;;;;;41.28;24.13;;;17.20;99.90;;;;;;4774800;29;20141;-94
2021/06/11 06:11:12;;;;;;;42.85;24.65;;;17.40;99.90;;;;;;4789362;29;20047;-93
2021/06/11 06:13:42;;;;;;;35.42;21.58;;;17.40;99.90;;;;;;4805200;29;20061;-94
2021/06/11 06:16:13;;;;;;;37.92;21.70;;;17.40;99.90;;;;;;4790748;29;20508;-93
2021/06/11 06:18:40;;;;;;;37.88;23.60;;;17.50;99.90;;;;;;4805082;29;20051;-93
2021/06/11 06:21:06;;;;;;;37.83;21.85;;;17.60;99.90;;;;;;4804959;29;20062;-94
2021/06/11 06:23:32;;;;;;;33.97;19.92;;;17.70;99.90;;;;;;4804640;29;20062;-94
2021/06/11 06:25:59;;;;;;;33.90;20.55;;;17.70;99.90;;;;;;4820140;29;20484;-95
2021/06/11 06:28:25;;;;;;;32.25;20.10;;;17.70;99.90;;;;;;4790130;29;20412;-94
2021/06/11 06:31:08;;;;;;;28.73;19.42;;;17.80;99.90;;;;;;4791054;29;20485;-95
2021/06/11 06:33:54;;;;;;;32.13;20.70;;;17.90;99.90;;;;;;4793739;29;20059;-93
2021/06/11 06:36:19;;;;;;;31.63;21.23;;;18.00;99.90;;;;;;4789679;29;20855;-95
2021/06/11 06:38:51;;;;;;;33.75;21.30;;;18.10;99.90;;;;;;4804875;29;20053;-95
2021/06/11 06:41:19;;;;;;;34.90;20.98;;;18.20;99.90;;;;;;4789594;29;20075;-95
2021/06/11 06:43:47;;;;;;;29.75;19.52;;;18.20;99.90;;;;;;4790137;29;20485;-93
2021/06/11 06:46:16;;;;;;;35.55;21.85;;;18.40;99.90;;;;;;4789364;29;20055;-94
2021/06/11 06:48:43;;;;;;;33.72;20.35;;;18.50;99.90;;;;;;4816166;29;20047;-94
2021/06/11 06:51:10;;;;;;;34.47;21.70;;;18.60;99.90;;;;;;4800829;29;20488;-94
2021/06/11 06:53:36;;;;;;;33.90;19.95;;;18.60;99.90;;;;;;4796829;29;20059;-94
2021/06/11 06:56:02;;;;;;;30.65;18.92;;;18.60;99.90;;;;;;4801677;29;20420;-95
2021/06/11 06:58:28;;;;;;;28.90;19.48;;;18.50;99.90;;;;;;4801929;29;20062;-93
2021/06/11 07:01:05;;;;;;;30.65;18.67;;;18.60;99.90;;;;;;4776643;29;20139;-93
2021/06/11 07:03:32;;;;;;;27.30;17.80;;;18.70;99.90;;;;;;4806363;29;20126;-93
2021/06/11 07:05:58;;;;;;;20.48;15.57;;;18.80;99.90;;;;;;4804795;29;20097;-92
2021/06/11 07:08:31;;;;;;;20.75;15.13;;;18.90;99.90;;;;;;4804841;29;20484;-96
2021/06/11 07:11:00;;;;;;;18.05;12.80;;;18.90;99.90;;;;;;4806308;29;20050;-93
2021/06/11 07:13:32;;;;;;;21.30;14.52;;;19.00;99.90;;;;;;4819596;29;20051;-93
2021/06/11 07:16:09;;;;;;;20.80;14.57;;;19.10;99.90;;;;;;4805033;29;20440;-95
2021/06/11 07:18:37;;;;;;;20.48;14.45;;;19.10;99.90;;;;;;4812427;29;20070;-94
2021/06/11 07:21:05;;;;;;;20.75;14.98;;;19.20;99.90;;;;;;4804372;29;20043;-93
2021/06/11 07:23:35;;;;;;;24.02;14.40;;;19.30;99.90;;;;;;4789773;29;20066;-94
2021/06/11 07:26:06;;;;;;;18.23;11.85;;;19.40;99.90;;;;;;4818395;29;20069;-94
2021/06/11 07:28:39;;;;;;;17.35;12.43;;;19.50;99.90;;;;;;4803898;29;20039;-94
2021/06/11 07:31:07;;;;;;;24.17;13.45;;;19.50;99.90;;;;;;4803398;29;20047;-95
2021/06/11 07:33:38;;;;;;;22.20;12.93;;;19.60;99.90;;;;;;4789867;29;20038;-93
2021/06/11 07:36:04;;;;;;;21.20;15.00;;;19.60;99.90;;;;;;4804288;29;20415;-94
2021/06/11 07:38:35;;;;;;;22.88;14.88;;;19.70;99.90;;;;;;4806173;29;20473;-94
2021/06/11 07:41:06;;;;;;;24.33;15.07;;;19.70;99.90;;;;;;4776076;29;20079;-94
2021/06/11 07:43:33;;;;;;;25.85;16.08;;;19.80;99.90;;;;;;4789964;29;20120;-94
2021/06/11 07:46:01;;;;;;;25.40;16.00;;;19.90;99.90;;;;;;4805232;29;20070;-94
2021/06/11 07:48:30;;;;;;;22.52;15.18;;;19.90;99.90;;;;;;4805210;29;20063;-95
2021/06/11 07:51:08;;;;;;;21.27;13.70;;;20.00;99.90;;;;;;4792121;29;20115;-95
2021/06/11 07:53:37;;;;;;;17.47;11.60;;;20.10;99.90;;;;;;4806683;29;20066;-95
2021/06/11 07:56:04;;;;;;;16.60;10.35;;;20.10;99.90;;;;;;4787896;30;20493;-92
2021/06/11 07:58:30;;;;;;;22.55;14.88;;;20.20;99.90;;;;;;4787109;29;20051;-93
2021/06/11 08:00:56;;;;;;;17.63;12.18;;;20.30;99.90;;;;;;4801342;29;20071;-91
2021/06/11 08:03:37;;;;;;;16.98;11.15;;;20.40;99.90;;;;;;4800720;29;20234;-92
2021/06/11 08:06:04;;;;;;;15.80;10.80;;;20.50;99.90;;;;;;4804949;29;20070;-90
2021/06/11 08:08:32;;;;;;;16.90;12.35;;;20.50;99.90;;;;;;4816728;29;20057;-91
2021/06/11 08:10:59;;;;;;;18.17;11.15;;;20.60;99.90;;;;;;4799207;29;20116;-91
2021/06/11 08:13:26;;;;;;;15.77;10.75;;;20.70;99.90;;;;;;4789664;29;20047;-91
2021/06/11 08:15:52;;;;;;;17.40;11.00;;;20.80;99.90;;;;;;4775074;29;20058;-94
2021/06/11 08:18:19;;;;;;;19.15;11.50;;;21.00;99.90;;;;;;4803055;29;20123;-92
2021/06/11 08:20:48;;;;;;;19.27;11.30;;;21.10;99.90;;;;;;4786957;29;20055;-94
2021/06/11 08:23:19;;;;;;;15.65;9.43;;;21.10;99.90;;;;;;4778288;29;20051;-95
2021/06/11 08:25:49;;;;;;;;;;;21.30;99.90;;;;;;4800870;29;20066;-93
2021/06/11 08:28:35;;;;;;;13.95;9.68;;;21.40;99.90;;;;;;4797106;29;20327;-94
2021/06/11 08:31:01;;;;;;;9.68;7.50;;;21.70;99.90;;;;;;4806365;29;20099;-94
2021/06/11 08:33:47;;;;;;;11.55;8.60;;;21.80;99.90;;;;;;4800034;29;20042;-96
2021/06/11 08:36:14;;;;;;;11.85;8.18;;;21.90;99.90;;;;;;4820460;29;20114;-95
2021/06/11 08:38:45;;;;;;;16.88;8.18;;;22.00;99.90;;;;;;4806460;29;20572;-95
2021/06/11 08:41:13;;;;;;;12.65;8.65;;;22.00;99.90;;;;;;4776832;29;20081;-94
2021/06/11 08:43:44;;;;;;;13.38;9.07;;;22.10;99.90;;;;;;4792151;29;20051;-95
2021/06/11 08:46:13;;;;;;;13.95;10.13;;;22.10;99.90;;;;;;4777226;29;20062;-95
2021/06/11 08:48:46;;;;;;;13.85;9.93;;;22.20;99.90;;;;;;4788668;29;20484;-95
2021/06/11 08:51:12;;;;;;;19.23;9.80;;;22.20;99.90;;;;;;4791153;29;20062;-94
2021/06/11 08:53:42;;;;;;;14.13;8.95;;;22.20;99.90;;;;;;4806077;29;20484;-94
2021/06/11 08:56:13;;;;;;;15.93;9.52;;;22.30;99.90;;;;;;4777373;29;20058;-93
2021/06/11 08:58:46;;;;;;;20.58;10.05;;;22.50;99.90;;;;;;4806137;29;20103;-94
2021/06/11 09:01:13;;;;;;;16.50;9.48;;;22.60;99.90;;;;;;4803844;29;20062;-96
2021/06/11 09:03:46;;;;;;;15.02;10.57;;;22.70;99.90;;;;;;4805921;29;20043;-95
2021/06/11 09:06:18;;;;;;;13.85;9.82;;;22.80;99.90;;;;;;4783722;30;20146;-95
2021/06/11 09:08:57;;;;;;;13.95;9.20;;;22.90;99.90;;;;;;4802119;29;20047;-95
2021/06/11 09:11:35;;;;;;;17.20;9.82;;;23.00;99.90;;;;;;4790704;29;20055;-96
2021/06/11 09:14:12;;;;;;;15.57;10.15;;;23.20;99.90;;;;;;4791801;29;20055;-96
2021/06/11 09:17:07;;;;;;;14.93;9.07;;;23.30;99.90;;;;;;4791583;29;20055;-96
2021/06/11 09:20:15;;;;;;;14.43;9.00;;;23.40;99.90;;;;;;4804061;29;20073;-96
2021/06/11 09:23:02;;;;;;;18.35;8.68;;;23.60;99.90;;;;;;4793560;29;20408;-93
2021/06/11 09:25:51;;;;;;;12.05;7.18;;;23.80;99.90;;;;;;4803416;29;20089;-94
2021/06/11 09:28:23;;;;;;;11.05;6.70;;;23.90;99.90;;;;;;4805973;29;20066;-94
2021/06/11 09:31:11;;;;;;;16.35;9.05;;;24.20;99.90;;;;;;4793083;29;20055;-93
2021/06/11 09:33:43;;;;;;;8.93;6.45;;;24.30;99.90;;;;;;4805614;29;20126;-94
2021/06/11 09:36:16;;;;;;;15.50;8.27;;;24.00;99.90;;;;;;4778050;29;20511;-96
2021/06/11 09:38:48;;;;;;;8.48;6.80;;;24.00;99.90;;;;;;4801441;29;20039;-94
2021/06/11 09:41:14;;;;;;;10.52;7.20;;;23.80;99.90;;;;;;4791357;29;20108;-94
2021/06/11 09:43:57;;;;;;;10.10;7.15;;;23.70;99.90;;;;;;4776379;29;20085;-95
2021/06/11 09:46:22;;;;;;;12.60;6.47;;;23.80;99.90;;;;;;4799083;29;20134;-95
2021/06/11 09:48:51;;;;;;;8.32;6.60;;;23.80;99.90;;;;;;4805604;29;20050;-95
2021/06/11 09:51:23;;;;;;;11.25;7.03;;;23.80;99.90;;;;;;4776341;29;20153;-95
2021/06/11 09:53:51;;;;;;;11.32;6.80;;;23.80;99.90;;;;;;4802217;29;20051;-94
2021/06/11 09:56:26;;;;;;;9.98;6.53;;;24.00;99.90;;;;;;4805596;29;20054;-94
2021/06/11 09:58:54;;;;;;;8.98;6.65;;;24.20;99.90;;;;;;4789642;29;20063;-93
2021/06/11 10:01:20;;;;;;;9.07;6.43;;;24.30;99.90;;;;;;4805920;29;20054;-93
2021/06/11 10:03:49;;;;;;;8.85;4.70;;;24.50;99.90;;;;;;4774500;29;20212;-95
2021/06/11 10:06:22;;;;;;;5.43;4.85;;;24.50;99.90;;;;;;4783286;29;20131;-95
2021/06/11 10:09:10;;;;;;;4.40;3.72;;;24.60;99.90;;;;;;4789939;29;20047;-96
2021/06/11 10:11:45;;;;;;;6.93;4.45;;;24.60;99.90;;;;;;4794055;29;20812;-94
2021/06/11 10:14:11;;;;;;;5.13;4.60;;;24.60;99.90;;;;;;4784664;29;20090;-93
2021/06/11 10:16:38;;;;;;;7.13;4.30;;;24.80;99.90;;;;;;4797183;29;20054;-94
2021/06/11 10:19:04;;;;;;;6.53;3.83;;;25.10;99.90;;;;;;4796483;29;20119;-94
2021/06/11 10:21:31;;;;;;;6.60;3.95;;;25.20;99.90;;;;;;4802991;29;20050;-93
2021/06/11 10:23:57;;;;;;;8.98;4.20;;;25.20;99.90;;;;;;4788370;29;20058;-95
2021/06/11 10:26:23;;;;;;;4.43;4.03;;;25.20;99.90;;;;;;4804083;29;20043;-96
2021/06/11 10:28:51;;;;;;;7.80;3.83;;;24.80;99.90;;;;;;4786262;29;20065;-96
2021/06/11 10:31:20;;;;;;;6.43;4.57;;;24.80;99.90;;;;;;4803558;29;20038;-91
2021/06/11 10:33:46;;;;;;;8.27;4.90;;;24.50;99.90;;;;;;4795387;29;20050;-93
2021/06/11 10:36:37;;;;;;;9.23;5.32;;;24.20;99.90;;;;;;4803490;29;20042;-93
2021/06/11 10:39:09;;;;;;;6.13;4.93;;;24.20;99.90;;;;;;4797469;29;20519;-94
2021/06/11 10:42:21;;;;;;;5.57;4.95;;;24.20;99.90;;;;;;4804036;29;20054;-94
2021/06/11 10:45:30;;;;;;;5.10;4.60;;;24.30;99.90;;;;;;4753569;30;20064;-95
2021/06/11 10:48:14;;;;;;;6.35;5.22;;;24.50;99.90;;;;;;4714104;30;20131;-96
2021/06/11 10:50:54;;;;;;;;;;;24.70;99.90;;;;;;4699109;30;20143;-95
2021/06/11 10:53:37;;;;;;;4.05;3.40;;;24.90;99.90;;;;;;4702306;30;19931;-93
2021/06/11 10:56:41;;;;;;;4.60;4.20;;;25.20;99.90;;;;;;4724490;30;20059;-94
2021/06/11 10:59:37;;;;;;;4.65;3.55;;;25.40;99.90;;;;;;4737702;30;20055;-93
2021/06/11 11:02:04;;;;;;;10.65;4.28;;;25.70;99.90;;;;;;4769926;30;20153;-93
2021/06/11 11:04:36;;;;;;;5.88;3.80;;;25.70;99.90;;;;;;4727359;30;20432;-95
2021/06/11 11:07:30;;;;;;;4.63;2.88;;;25.90;99.90;;;;;;4752823;30;20093;-93
2021/06/11 11:09:58;;;;;;;8.07;3.00;;;25.80;99.90;;;;;;4763961;30;20071;-93
2021/06/11 11:12:30;;;;;;;3.05;2.45;;;25.80;99.90;;;;;;4763931;30;20052;-93
2021/06/11 11:15:00;;;;;;;5.45;3.38;;;25.90;99.90;;;;;;4751769;30;20442;-92
2021/06/11 11:17:27;;;;;;;4.35;3.58;;;25.90;99.90;;;;;;4752957;30;20056;-93
2021/06/11 11:19:54;;;;;;;7.30;2.70;;;26.20;99.90;;;;;;4812852;29;20067;-94
2021/06/11 11:22:30;;;;;;;3.90;3.13;;;26.30;99.90;;;;;;4819426;29;20555;-94
2021/06/11 11:24:58;;;;;;;3.38;2.45;;;26.60;99.90;;;;;;4794916;29;20416;-93
2021/06/11 11:27:24;;;;;;;3.67;2.78;;;26.90;99.90;;;;;;4788332;29;20067;-93
2021/06/11 11:29:52;;;;;;;4.53;2.17;;;27.00;99.90;;;;;;4802229;29;20047;-91
2021/06/11 11:32:19;;;;;;;2.95;2.38;;;27.20;99.90;;;;;;4786870;29;20055;-93
2021/06/11 11:34:51;;;;;;;3.10;2.85;;;27.10;99.90;;;;;;4801467;29;20082;-93
2021/06/11 11:37:24;;;;;;;5.30;3.47;;;26.80;99.90;;;;;;4775938;29;20475;-92
2021/06/11 11:39:50;;;;;;;8.25;4.72;;;26.50;99.90;;;;;;4773094;29;20071;-91
2021/06/11 11:42:17;;;;;;;5.35;4.85;;;26.30;99.90;;;;;;4803644;29;20053;-94
2021/06/11 11:44:43;;;;;;;6.03;4.70;;;26.20;99.90;;;;;;4803484;29;20047;-93
2021/06/11 11:47:12;;;;;;;9.55;5.05;;;26.20;99.90;;;;;;4804286;29;20047;-95
2021/06/11 11:49:38;;;;;;;13.68;6.32;;;25.60;99.90;;;;;;4805358;29;20513;-94
2021/06/11 11:52:04;;;;;;;7.95;5.93;;;25.80;99.90;;;;;;4804110;29;20074;-94
2021/06/11 11:54:33;;;;;;;6.03;4.63;;;25.80;99.90;;;;;;4789452;29;20150;-95
2021/06/11 11:57:00;;;;;;;11.05;6.00;;;25.80;99.90;;;;;;4803571;29;20054;-94
2021/06/11 11:59:27;;;;;;;11.10;6.03;;;25.80;99.90;;;;;;4804814;29;20047;-94
2021/06/11 12:01:54;;;;;;;9.95;5.63;;;25.90;99.90;;;;;;4817941;29;20050;-94
2021/06/11 12:04:22;;;;;;;8.07;5.50;;;26.20;99.90;;;;;;4790069;29;20047;-95
2021/06/11 12:06:49;;;;;;;7.72;5.28;;;26.10;99.90;;;;;;4804648;29;20107;-95
2021/06/11 12:09:15;;;;;;;8.63;5.55;;;26.20;99.90;;;;;;4804794;29;20050;-95
2021/06/11 12:11:41;;;;;;;8.50;6.82;;;26.40;99.90;;;;;;4804980;29;20381;-95
2021/06/11 12:14:11;;;;;;;7.97;4.85;;;26.20;99.90;;;;;;4804626;29;20058;-93
2021/06/11 12:16:37;;;;;;;8.55;5.93;;;26.20;99.90;;;;;;4804957;29;20411;-95
2021/06/11 12:19:04;;;;;;;10.07;5.85;;;26.20;99.90;;;;;;4804222;29;20050;-95
2021/06/11 12:21:30;;;;;;;7.75;5.78;;;26.40;99.90;;;;;;4804938;29;20058;-95
2021/06/11 12:23:58;;;;;;;5.93;4.13;;;26.50;99.90;;;;;;4786701;30;20063;-95
2021/06/11 12:26:25;;;;;;;4.68;4.22;;;27.00;99.90;;;;;;4788518;29;20054;-94
2021/06/11 12:28:56;;;;;;;6.05;3.55;;;27.20;99.90;;;;;;4804974;29;20093;-95
2021/06/11 12:31:22;;;;;;;6.95;4.00;;;27.10;99.90;;;;;;4805472;29;20039;-94
2021/06/11 12:33:48;;;;;;;6.45;4.32;;;27.00;99.90;;;;;;4776067;29;20059;-95
2021/06/11 12:36:15;;;;;;;7.03;3.60;;;26.90;99.90;;;;;;4790357;29;20049;-95
2021/06/11 12:38:44;;;;;;;4.15;3.45;;;27.00;99.90;;;;;;4798631;29;20051;-96
2021/06/11 12:41:13;;;;;;;3.83;3.53;;;27.30;99.90;;;;;;4807860;29;20039;-94
2021/06/11 12:46:25;;;;;;;8.27;4.88;;;27.20;99.90;;;;;;4805090;29;20046;-94
2021/06/11 12:48:55;;;;;;;17.52;12.35;;;27.50;99.90;;;;;;4805942;29;20057;-91
2021/06/11 12:51:22;;;;;;;14.88;10.75;;;26.90;99.90;;;;;;4805620;29;20046;-93
2021/06/11 12:54:07;;;;;;;14.15;11.30;;;26.70;99.90;;;;;;4793487;29;20108;-93